Weather observations for the past three days for
Waskish Municipal Airport
Imperial (Metric)
Date Time (cdt) Wind (mph) Vis. (mi.) Weather Sky Cond. Temperature (ºF) Relative Humidity Wind Chill (°F) Heat Index (°F) Pressure Precipitation (in)
Air Dwpt 6 hour altimeter (in) sea level (mb) 1 hr 3 hr 6 hr
Max. Min.
03 12:35 SW 10 10.00 Fair CLR 59 28.4 31% 29.73 0.0
03 11:14 SW 12 10.00 Fair CLR 55.4 35.6 47% 29.76 0.0
03 10:53 SW 12 10.00 Fair CLR 53.6 37.4 54% 29.76 0.0
03 09:32 W 7 10.00 Fair CLR 50 39.2 67% 48 29.77 0.0
03 09:10 W 6 10.00 Fair CLR 50 37.4 62% 48 0 0.0
03 07:32 NW 8 10.00 Fair CLR 44.6 37.4 76% 41 29.77 0.0
03 06:52 NW 6 10.00 Fair CLR 42.8 39.2 87% 40 29.75 0.0
03 06:16 NW 7 10.00 Fair CLR 41 39.2 93% 37 29.74 0.0
03 05:34 NW 7 10.00 Fair CLR 42.8 42.8 100% 39 29.74 0.0
03 05:04 NW 8 10.00 Fair CLR 42.8 42.8 100% 39 29.73 0.0
03 04:12 NW 10 10.00 Fair CLR 0 0 0% 29.73 0.0
03 03:50 NW 8 10.00 Fair CLR 0 0 0% 29.72 0.0
03 03:10 W 5 10.00 Fair CLR 0 0 0% 29.72 0.0
03 02:14 W 3 3.00 Fog/Mist CLR 0 0 0% 29.72 0.0
03 01:49 W 3 5.00 Fair with Haze CLR 0 0 0% 29.73 0.0
03 00:52 Calm 0.50 Fog BKN001 0 0 0% 29.73 0.0
03 00:14 Calm 5.00 Fair with Haze CLR 0 0 0% 29.73 0.0
02 23:34 Calm 10.00 Mostly Cloudy BKN110 0 0 0% 29.74 0.0
02 22:52 Calm 10.00 Overcast OVC095 0 0 0% 29.74 0.0
02 22:29 Calm 10.00 Overcast OVC085 48.2 48.2 100% 29.75 0.0
02 21:34 Calm 10.00 Overcast OVC075 50 50 100% 29.75 0.0
02 20:56 N 6 10.00 Overcast BKN075 OVC080 51.8 51.8 100% 29.75 0.0
02 20:29 Calm 10.00 Overcast OVC075 51.8 51.8 100% 29.74 0.0
02 19:33 Calm 10.00 Light Rain OVC075 51.8 51.8 100% 29.75 0.0
02 19:08 E 5 10.00 Light Rain OVC085 53.6 53.6 100% 29.75 0.0
02 18:32 E 5 10.00 Light Rain OVC085 53.6 53.6 100% 0 0.0
02 17:12 W 15 10.00 Rain SCT032 BKN048 OVC065 55.4 42.8 63% 29.8 0.0
02 16:45 W 12 G 18 10.00 Light Rain SCT047 SCT055 BKN065 57.2 39.2 51% 29.8 0.0
02 15:54 SW 10 10.00 Fair CLR 60.8 37.4 42% 29.78 0.0
02 15:32 SW 9 10.00 Fair CLR 62.6 35.6 37% 29.79 0.0
02 14:14 SW 10 10.00 Mostly Cloudy BKN110 62.6 33.8 34% 29.8 0.0
02 13:54 W 8 10.00 Overcast OVC110 62.6 33.8 34% 0 0.0
02 12:34 W 9 10.00 Mostly Cloudy BKN095 60.8 33.8 36% 29.84 0.0
02 11:52 S 7 10.00 NULL NULL 64.4 30.2 28% 29.85 0.0
02 11:13 S 10 G 16 10.00 Fair CLR 62.6 30.2 30% 29.87 0.0
02 10:47 S 6 10.00 Fair CLR 60.8 28.4 29% 29.88 0.0
02 09:54 SW 8 10.00 Fair CLR 57.2 26.6 31% 29.9 0.0
02 09:25 S 6 10.00 Fair CLR 55.4 26.6 33% 29.92 0.0
02 08:34 S 5 10.00 Fair CLR 50 26.6 40% 49 29.95 0.0
02 07:52 S 6 10.00 Fair CLR 44.6 26.6 49% 42 29.96 0.0
02 07:12 S 5 10.00 Fair CLR 41 26.6 57% 38 29.97 0.0
02 06:47 S 3 10.00 Fair CLR 37.4 26.6 65% 29.98 0.0
02 05:12 S 3 10.00 Fair CLR 37.4 30.2 75% 30 0.0
02 04:32 Calm 10.00 Fair CLR 30.2 30.2 100% 30.01 0.0
02 03:52 Calm 10.00 Fair CLR 28.4 28.4 100% 30.02 0.0
02 03:34 Calm 10.00 Fair CLR 28.4 28.4 100% 30.02 0.0
02 02:12 S 3 10.00 Fair CLR 28.4 28.4 100% 30.03 0.0
02 01:32 Calm 10.00 Fair CLR 30.2 30.2 100% 30.04 0.0
02 01:10 Calm 10.00 Fair CLR 30.2 30.2 100% 30.04 0.0
02 00:14 Calm 10.00 Fair CLR 30.2 30.2 100% 30.05 0.0
01 23:34 Calm 1.00 Fair CLR 32 30.2 93% 30.06 0.0
01 23:06 Calm 10.00 Fair CLR 32 30.2 93% 30.06 0.0
01 21:42 Calm 10.00 Fair CLR 35.6 28.4 75% 30.07 0.0
01 20:54 Calm 10.00 Fair CLR 42.8 21.2 42% 30.07 0.0
01 20:28 Calm 10.00 Fair CLR 48.2 21.2 34% 30.07 0.0
01 19:43 NE 6 10.00 Fair CLR 51.8 21.2 30% 30.06 0.0
01 19:08 Calm 10.00 Fair CLR 51.8 19.4 28% 30.06 0.0
01 17:47 W 6 10.00 Fair CLR 53.6 21.2 28% 30.07 0.0
01 16:52 SW 5 10.00 Fair CLR 53.6 19.4 26% 30.07 0.0
01 16:13 W 6 10.00 Fair CLR 53.6 21.2 28% 30.08 0.0
01 15:32 W 8 10.00 Fair CLR 53.6 21.2 28% 30.08 0.0
01 14:52 W 6 10.00 Fair CLR 51.8 19.4 28% 30.09 0.0
01 14:14 SW 8 10.00 Fair CLR 51.8 19.4 28% 30.09 0.0
01 13:47 SW 7 10.00 Fair CLR 51.8 19.4 28% 30.09 0.0
01 12:56 SW 9 10.00 Fair CLR 50 21.2 32% 47 30.1 0.0
01 12:14 W 9 10.00 Fair CLR 48.2 19.4 32% 45 30.11 0.0
01 11:36 W 7 10.00 Fair CLR 0 0 0% 30.11 0.0
01 10:52 SW 7 10.00 Fair CLR 46.4 28.4 50% 43 30.12 0.0
01 10:29 W 8 10.00 Fair CLR 44.6 28.4 53% 41 30.12 0.0
01 09:36 Calm 10.00 Fair CLR 41 28.4 61% 30.12 0.0
01 08:52 W 5 10.00 Fair CLR 39.2 32 75% 36 30.12 0.0
01 08:12 Calm 10.00 Fair CLR 35.6 30.2 81% 30.11 0.0
01 07:48 Calm 10.00 Fair CLR 35.6 32 87% 30.11 0.0
01 06:29 Calm 10.00 Fair CLR 24.8 24.8 100% 30.09 0.0
01 04:52 Calm 10.00 Fair CLR 30.2 26.6 86% 30.08 0.0
01 04:29 Calm 10.00 Fair CLR 30.2 26.6 86% 30.08 0.0
01 03:36 N 3 10.00 Fair CLR 33.8 26.6 75% 30.07 0.0
01 03:06 Calm 10.00 Fair CLR 33.8 28.4 81% 30.07 0.0
01 02:12 Calm 10.00 Fair CLR 26.6 26.6 100% 30.07 0.0
01 01:49 Calm 10.00 Fair CLR 28.4 28.4 100% 30.07 0.0
01 01:09 Calm 10.00 Fair CLR 28.4 28.4 100% 30.07 0.0
01 00:14 Calm 10.00 Fair CLR 28.4 28.4 100% 30.07 0.0
30 23:46 Calm 10.00 Fair CLR 28.4 28.4 100% 30.06 0.0
30 22:52 Calm 10.00 Fair CLR 30.2 28.4 93% 30.07 0.0
30 22:14 Calm 10.00 Fair CLR 33.8 24.8 70% 30.07 0.0
30 21:32 NW 5 10.00 Fair CLR 39.2 24.8 56% 36 30.07 0.0
30 21:04 Calm 10.00 Fair CLR 41 26.6 57% 30.06 0.0
30 20:14 N 3 10.00 Fair CLR 42.8 23 46% 30.06 0.0
30 19:45 N 5 10.00 Fair CLR 42.8 23 46% 41 30.05 0.0
30 18:12 N 7 10.00 Partly Cloudy SCT060 44.6 24.8 46% 41 30.05 0.0
30 17:36 W 5 10.00 Overcast OVC050 44.6 24.8 46% 43 30.05 0.0
30 16:52 SW 6 10.00 Overcast OVC050 44.6 26.6 49% 42 30.05 0.0
30 16:25 SW 5 10.00 Overcast OVC050 44.6 24.8 46% 43 30.05 0.0
30 15:33 W 6 10.00 Overcast OVC051 44.6 24.8 46% 42 30.06 0.0
30 15:11 W 7 10.00 Overcast OVC050 42.8 24.8 49% 39 30.06 0.0
30 14:29 SW 10 10.00 Overcast OVC050 42.8 24.8 49% 38 30.07 0.0
30 13:34 W 8 10.00 Overcast OVC050 44.6 24.8 46% 41 30.08 0.0
30 13:10 SW 7 10.00 Overcast OVC048 42.8 23 46% 39 30.08 0.0
Date Time (cdt) Wind (mph) Vis. (mi.) Weather Sky Cond. Air Dwpt Max. Min. Relative Humidity Wind Chill (°F) Heat Index (°F) altimeter (in) sea level (mb) 1 hr 3 hr 6 hr
6 hour
Temperature (ºF) Pressure Precipitation (in)